This is the latest recevied weather packets stored in our database for station/object N3WPH. If no packets are shown the sender has not sent any weather packets the latest 10 day(s).
| Time | Temp. | Humidity | Pressure | Rain* | Wind** | Luminosity | Snow |
|---|---|---|---|---|---|---|---|
| 1777736919 | 12.22° C | 56% | 1013.3 hPa | 0 mm | - | 171 W/m² | - |
| 1777736311 | 10.56° C | 63% | 1013.4 hPa | 0 mm | - | 786 W/m² | - |
| 1777736007 | 11.11° C | 60% | 1013.3 hPa | 0 mm | - | 151 W/m² | - |
| 1777735705 | 10.56° C | 59% | 1013.4 hPa | 0 mm | - | 811 W/m² | - |
| 1777735402 | 11.67° C | 60% | 1013.4 hPa | 0 mm | - | 837 W/m² | - |
| 1777735100 | 11.11° C | 62% | 1013.3 hPa | 0 mm | - | 755 W/m² | - |
| 1777734796 | 11.11° C | 61% | 1013.4 hPa | 0 mm | - | 742 W/m² | - |
| 1777734494 | 11.11° C | 63% | 1013.2 hPa | 0 mm | - | 331 W/m² | - |
| 1777734190 | 10° C | 60% | 1013.2 hPa | 0 mm | - | 771 W/m² | - |
| 1777733887 | 11.11° C | 59% | 1013.4 hPa | 0 mm | - | 240 W/m² | - |
| 1777733584 | 11.11° C | 58% | 1013.3 hPa | 0 mm | - | 707 W/m² | - |
| 1777733280 | 11.11° C | 62% | 1013.1 hPa | 0 mm | - | 721 W/m² | - |
| 1777732977 | 10.56° C | 61% | 1013.5 hPa | 0 mm | - | 364 W/m² | - |
| 1777732673 | 10° C | 61% | 1013.4 hPa | 0 mm | - | 688 W/m² | - |
| 1777732370 | 10.56° C | 64% | 1013.4 hPa | 0 mm | - | 678 W/m² | - |
| 1777732068 | 10.56° C | 65% | 1013.4 hPa | 0 mm | - | 588 W/m² | - |
| 1777731764 | 10° C | 67% | 1013.2 hPa | 0 mm | - | 236 W/m² | - |
| 1777731461 | 10° C | 67% | 1013.4 hPa | 0 mm | - | 477 W/m² | - |
| 1777731160 | 10° C | 69% | 1013.4 hPa | 0 mm | - | 341 W/m² | - |
| 1777730858 | 9.44° C | 72% | 1013.4 hPa | 0 mm | - | 513 W/m² | - |
| 1777730555 | 8.33° C | 74% | 1013.4 hPa | 0 mm | - | 560 W/m² | - |
| 1777730250 | 8.89° C | 77% | 1013.6 hPa | 0 mm | - | 250 W/m² | - |
| 1777729947 | 7.78° C | 76% | 1013.5 hPa | 0 mm | - | 151 W/m² | - |
| 1777729643 | 8.33° C | 77% | 1013.5 hPa | 0 mm | - | 164 W/m² | - |
| 1777729341 | 7.78° C | 76% | 1013.6 hPa | 0 mm | - | 485 W/m² | - |
* Rain latest hour (hover to see other rain measurements)
** Current wind speed in m/s (hover to see current wind gust speed)